Time;durP1;ratioP1;P1;durP2;ratioP2;P2;SDS_P1;SDS_P2;PMS_P1;PMS_P2;Temp;Humidity;BMP_temperature;BMP_pressure;BME280_temperature;BME280_humidity;BME280_pressure;Samples;Min_cycle;Max_cycle;Signal;HPM_P1;HPM_P2
2023/07/21 00:01:48;;;;;;;2.53;2.33;;;;;;;15.21;100.00;101200.72;5034338;28;20124;-48
2023/07/21 00:04:14;;;;;;;2.08;1.75;;;;;;;15.24;100.00;101205.88;5052370;28;20057;-48
2023/07/21 00:06:43;;;;;;;2.53;1.92;;;;;;;15.26;100.00;101197.88;5034160;28;20033;-50
2023/07/21 00:09:09;;;;;;;2.80;2.42;;;;;;;14.93;100.00;101140.16;5046988;28;20499;-48
2023/07/21 00:11:34;;;;;;;2.53;2.33;;;;;;;15.29;100.00;101211.00;5034142;28;20136;-52
2023/07/21 00:13:59;;;;;;;3.40;2.38;;;;;;;14.90;100.00;101140.28;5034372;28;20123;-48
2023/07/21 00:16:27;;;;;;;2.80;2.60;;;;;;;14.81;100.00;101132.75;5052135;28;20045;-47
2023/07/21 00:18:52;;;;;;;2.92;2.72;;;;;;;15.17;100.00;101194.72;5050653;28;20033;-48
2023/07/21 00:21:17;;;;;;;3.33;2.90;;;;;;;15.09;100.00;101185.41;5051888;28;20049;-50
2023/07/21 00:23:44;;;;;;;3.15;2.65;;;;;;;14.78;100.00;101134.66;5051447;28;20033;-51
2023/07/21 00:26:09;;;;;;;5.03;3.45;;;;;;;15.14;100.00;101200.16;5051643;28;20037;-49
2023/07/21 00:28:36;;;;;;;4.00;3.00;;;;;;;15.15;100.00;101193.03;5034680;28;20085;-50
2023/07/21 00:31:01;;;;;;;3.80;3.50;;;;;;;15.04;100.00;101177.63;5032089;28;20069;-50
2023/07/21 00:33:26;;;;;;;3.97;3.67;;;;;;;15.11;100.00;101194.13;5031959;28;20064;-48
2023/07/21 00:35:52;;;;;;;4.35;3.95;;;;;;;15.10;100.00;101193.25;5031855;28;20029;-50
2023/07/21 00:38:17;;;;;;;3.85;3.47;;;;;;;15.05;100.00;101176.72;5030669;28;20037;-48
2023/07/21 00:40:44;;;;;;;4.55;4.07;;;;;;;14.83;100.00;101137.97;5030731;28;20488;-49
2023/07/21 00:43:09;;;;;;;5.28;4.05;;;;;;;14.99;100.00;101153.13;5031761;28;20045;-49
2023/07/21 00:45:39;;;;;;;3.90;3.50;;;;;;;15.08;100.00;101158.00;5046853;28;20041;-47
2023/07/21 00:48:07;;;;;;;4.43;4.03;;;;;;;14.94;100.00;101130.41;5051660;28;20360;-49
2023/07/21 00:50:36;;;;;;;5.93;4.47;;;;;;;14.79;100.00;101099.31;5051550;28;20036;-51
2023/07/21 00:53:04;;;;;;;4.80;4.28;;;;;;;15.00;100.00;101124.84;5050250;28;20128;-53
2023/07/21 00:55:31;;;;;;;5.32;4.82;;;;;;;14.89;100.00;101093.50;5050345;28;20086;-55
2023/07/21 00:57:56;;;;;;;5.90;4.97;;;;;;;15.01;100.00;101119.44;5033984;28;20067;-51
2023/07/21 01:00:22;;;;;;;6.45;4.50;;;;;;;14.99;100.00;101108.06;5047097;28;20536;-52
2023/07/21 01:02:49;;;;;;;4.30;3.90;;;;;;;15.28;100.00;101159.75;5031727;28;20040;-54
2023/07/21 01:05:17;;;;;;;5.30;4.28;;;;;;;15.25;100.00;101153.72;5031586;28;20485;-49
2023/07/21 01:07:42;;;;;;;4.05;3.70;;;;;;;14.92;100.00;101098.66;5031629;28;20060;-54
2023/07/21 01:10:08;;;;;;;3.90;3.60;;;;;;;15.18;100.00;101130.13;5030104;28;20034;-48
2023/07/21 01:12:34;;;;;;;4.57;4.18;;;;;;;15.23;100.00;101137.88;5031712;28;20032;-50
2023/07/21 01:14:59;;;;;;;4.95;4.45;;;;;;;14.04;100.00;100966.69;5030347;28;20312;-51
2023/07/21 01:17:28;;;;;;;5.95;5.35;;;;;;;15.18;100.00;101145.16;5029631;28;20041;-53
2023/07/21 01:19:54;;;;;;;6.75;5.13;;;;;;;15.16;100.00;101150.56;5030195;28;20445;-48
2023/07/21 01:22:28;;;;;;;5.82;5.25;;;;;;;15.06;100.00;101133.34;5030311;28;20107;-52
2023/07/21 01:24:54;;;;;;;5.38;4.82;;;;;;;15.14;100.00;101155.09;5030352;28;20163;-49
2023/07/21 01:27:21;;;;;;;5.50;5.10;;;;;;;14.71;100.00;101078.44;5031574;28;20120;-53
2023/07/21 01:29:48;;;;;;;5.57;5.05;;;;;;;14.69;100.00;101075.00;5031452;28;20461;-49
2023/07/21 01:32:16;;;;;;;5.47;4.97;;;;;;;14.72;100.00;101079.28;5029061;28;20103;-46
2023/07/21 01:34:42;;;;;;;6.65;5.60;;;;;;;15.06;100.00;101135.16;5033032;28;20029;-50
2023/07/21 01:37:08;;;;;;;5.10;4.70;;;;;;;15.02;100.00;101136.22;5033644;28;20033;-48
2023/07/21 01:39:35;;;;;;;5.60;5.10;;;;;;;14.93;100.00;101112.78;5017400;28;20057;-49
2023/07/21 01:42:05;;;;;;;5.57;4.97;;;;;;;14.89;100.00;101113.84;5034927;28;20129;-47
2023/07/21 01:44:30;;;;;;;5.70;5.03;;;;;;;15.01;100.00;101145.97;5033804;28;20052;-52
2023/07/21 01:46:56;;;;;;;5.82;5.32;;;;;;;14.92;100.00;101121.66;5034805;28;20400;-46
2023/07/21 01:49:21;;;;;;;7.32;5.30;;;;;;;14.86;100.00;101109.53;5034404;28;20044;-48
2023/07/21 01:51:48;;;;;;;6.18;5.15;;;;;;;15.00;100.00;101144.22;5033453;28;20052;-47
2023/07/21 01:54:38;;;;;;;5.90;5.40;;;;;;;14.95;100.00;101124.16;5033523;28;20491;-47
2023/07/21 01:57:06;;;;;;;6.75;4.95;;;;;;;14.50;100.00;101045.00;5028456;28;20049;-51
2023/07/21 01:59:31;;;;;;;5.72;5.22;;;;;;;14.96;100.00;101128.53;5033467;28;20039;-52
2023/07/21 02:01:57;;;;;;;5.60;5.10;;;;;;;14.90;100.00;101140.28;5034403;28;20112;-49
2023/07/21 02:04:23;;;;;;;7.63;5.13;;;;;;;14.54;100.00;101071.25;5016701;28;20120;-48
2023/07/21 02:06:48;;;;;;;5.70;5.15;;;;;;;14.96;100.00;101132.06;5034343;28;20037;-49
2023/07/21 02:09:14;;;;;;;6.28;5.05;;;;;;;14.92;100.00;101125.16;5033156;28;20469;-50
2023/07/21 02:11:40;;;;;;;5.30;4.80;;;;;;;14.98;100.00;101139.94;5034409;28;20116;-49
2023/07/21 02:14:06;;;;;;;5.32;4.57;;;;;;;14.98;100.00;101126.66;5033162;28;20083;-47
2023/07/21 02:16:32;;;;;;;5.10;4.60;;;;;;;14.96;100.00;101129.41;5034154;28;20033;-49
2023/07/21 02:18:57;;;;;;;5.30;4.57;;;;;;;14.61;100.00;101069.19;5034525;28;20037;-52
2023/07/21 02:21:22;;;;;;;5.50;5.00;;;;;;;14.95;100.00;101118.84;5034258;28;20044;-50
2023/07/21 02:23:48;;;;;;;4.35;3.97;;;;;;;14.79;100.00;101092.22;5035094;28;20037;-51
2023/07/21 02:26:13;;;;;;;5.53;5.07;;;;;;;14.54;100.00;101050.06;5054004;28;20119;-49
2023/07/21 02:28:38;;;;;;;6.72;5.38;;;;;;;14.88;100.00;101107.69;5053930;28;20057;-53
2023/07/21 02:31:04;;;;;;;5.40;4.90;;;;;;;14.87;100.00;101105.09;5052683;28;20087;-50
2023/07/21 02:33:30;;;;;;;5.53;5.03;;;;;;;14.84;100.00;101094.66;5053798;28;20033;-48
2023/07/21 02:35:57;;;;;;;6.15;5.65;;;;;;;14.91;100.00;101104.91;5036127;28;20041;-50
2023/07/21 02:38:22;;;;;;;6.78;5.72;;;;;;;14.88;100.00;101115.66;5052970;28;20546;-53
2023/07/21 02:40:47;;;;;;;6.07;5.47;;;;;;;14.54;100.00;101054.50;5052527;28;20029;-51
2023/07/21 02:43:13;;;;;;;6.05;5.55;;;;;;;14.75;100.00;101108.31;5036926;28;20037;-50
2023/07/21 02:45:38;;;;;;;6.03;5.53;;;;;;;14.67;100.00;101115.75;5032999;28;20034;-53
2023/07/21 02:48:07;;;;;;;8.43;6.03;;;;;;;14.49;100.00;101089.16;5033555;28;20437;-51
2023/07/21 02:50:33;;;;;;;6.53;5.90;;;;;;;14.09;100.00;101039.72;5033978;28;20094;-49
2023/07/21 02:52:58;;;;;;;6.95;6.32;;;;;;;14.37;100.00;101100.28;5016134;28;20029;-58
2023/07/21 02:55:24;;;;;;;7.05;6.45;;;;;;;13.87;100.00;101032.75;5033373;28;20038;-50
2023/07/21 02:57:49;;;;;;;7.68;6.97;;;;;;;13.75;100.00;101031.47;5033464;28;20041;-50
2023/07/21 03:00:14;;;;;;;8.32;7.53;;;;;;;13.36;100.00;100970.56;5048114;28;20037;-50
2023/07/21 03:02:41;;;;;;;6.90;6.40;;;;;;;13.66;100.00;101031.03;5053238;28;20041;-47
2023/07/21 03:05:07;;;;;;;7.85;7.15;;;;;;;13.95;100.00;101096.81;5053476;28;20504;-52
2023/07/21 03:07:32;;;;;;;8.50;7.63;;;;;;;13.92;100.00;101096.94;5053419;28;20037;-50
2023/07/21 03:09:58;;;;;;;8.90;8.10;;;;;;;13.88;100.00;101093.56;5053168;28;20044;-50
2023/07/21 03:12:23;;;;;;;8.75;7.90;;;;;;;13.89;100.00;101097.06;5053074;28;20374;-51
2023/07/21 03:14:49;;;;;;;10.27;9.30;;;;;;;13.42;100.00;101017.03;5052766;28;20550;-51
2023/07/21 03:17:14;;;;;;;9.60;8.40;;;;;;;13.12;100.00;100979.50;5033843;28;20045;-49
2023/07/21 03:19:40;;;;;;;9.27;8.43;;;;;;;13.74;100.00;101089.75;5033287;28;20136;-49
2023/07/21 03:22:05;;;;;;;9.73;8.77;;;;;;;13.42;100.00;101041.69;5033257;28;20045;-48
2023/07/21 03:24:32;;;;;;;9.57;8.77;;;;;;;13.56;100.00;101074.63;5032864;28;20057;-47
2023/07/21 03:26:57;;;;;;;10.00;9.13;;;;;;;13.64;100.00;101102.50;5031854;28;20029;-50
2023/07/21 03:29:22;;;;;;;10.23;9.18;;;;;;;13.59;100.00;101080.66;5031546;28;20057;-48
2023/07/21 03:31:48;;;;;;;9.38;8.57;;;;;;;13.57;100.00;101089.59;5031498;28;20034;-49
2023/07/21 03:34:14;;;;;;;9.45;8.55;;;;;;;13.39;100.00;101064.75;5043278;28;20041;-51
2023/07/21 03:36:39;;;;;;;9.30;8.40;;;;;;;13.49;100.00;101093.41;5052259;28;20519;-51
2023/07/21 03:39:05;;;;;;;9.40;8.50;;;;;;;13.15;100.00;101019.00;5034957;28;20108;-53
2023/07/21 03:41:30;;;;;;;9.68;8.70;;;;;;;13.46;100.00;101079.44;5052424;28;20060;-47
2023/07/21 03:43:55;;;;;;;8.70;8.00;;;;;;;13.43;100.00;101069.84;5052754;28;20036;-48
2023/07/21 03:46:21;;;;;;;9.60;8.63;;;;;;;13.51;100.00;101074.84;5052604;28;20043;-49
2023/07/21 03:48:47;;;;;;;10.43;9.45;;;;;;;13.50;100.00;101073.97;5031649;28;20041;-48
2023/07/21 03:51:13;;;;;;;10.25;9.32;;;;;;;13.09;100.00;100998.13;5033276;28;20037;-53
2023/07/21 03:53:38;;;;;;;10.93;9.82;;;;;;;13.07;100.00;100989.38;5032739;28;20108;-49
2023/07/21 03:56:05;;;;;;;10.40;9.40;;;;;;;13.16;100.00;100993.44;5014940;28;20132;-52
2023/07/21 03:58:31;;;;;;;10.63;9.70;;;;;;;13.19;100.00;100988.03;5032659;28;20460;-51
2023/07/21 04:00:58;;;;;;;10.60;9.68;;;;;;;13.66;100.00;101053.03;5031141;28;20112;-51
2023/07/21 04:03:24;;;;;;;9.95;9.00;;;;;;;13.70;100.00;101057.28;5032860;28;20042;-53
2023/07/21 04:05:51;;;;;;;11.25;9.57;;;;;;;13.34;100.00;100976.81;5032269;28;20524;-47
2023/07/21 04:08:16;;;;;;;9.63;8.73;;;;;;;13.76;100.00;101040.28;5032436;28;20029;-48
2023/07/21 04:10:42;;;;;;;9.77;8.77;;;;;;;13.86;100.00;101049.56;5032321;28;20095;-47
2023/07/21 04:13:07;;;;;;;9.38;8.48;;;;;;;13.95;100.00;101059.75;5032503;28;20034;-48
2023/07/21 04:15:33;;;;;;;10.15;9.35;;;;;;;13.99;100.00;101053.41;5030836;28;20044;-48
2023/07/21 04:17:58;;;;;;;8.88;8.07;;;;;;;14.09;100.00;101050.31;5032362;28;20037;-48
2023/07/21 04:20:23;;;;;;;9.75;8.70;;;;;;;13.78;100.00;100983.72;5032291;28;20030;-50
2023/07/21 04:22:49;;;;;;;9.95;8.95;;;;;;;13.91;100.00;101002.59;5030344;28;20087;-51
2023/07/21 04:25:17;;;;;;;9.77;8.77;;;;;;;14.29;100.00;101060.00;5032041;28;20382;-49
2023/07/21 04:27:42;;;;;;;10.23;9.32;;;;;;;14.19;100.00;101026.03;5032057;28;20064;-51
2023/07/21 04:30:08;;;;;;;10.20;8.75;;;;;;;14.42;100.00;101055.03;5030895;28;20079;-51
2023/07/21 04:32:33;;;;;;;8.70;7.90;;;;;;;14.28;100.00;101025.66;5032465;28;20045;-49
2023/07/21 04:34:59;;;;;;;9.25;8.40;;;;;;;14.01;100.00;100980.94;5032267;28;20068;-49
2023/07/21 04:37:25;;;;;;;9.25;8.45;;;;;;;14.44;100.00;101047.91;5014146;28;20514;-52
2023/07/21 04:39:51;;;;;;;8.85;7.97;;;;;;;14.46;100.00;101036.31;5032018;28;20381;-49
2023/07/21 04:42:16;;;;;;;8.65;7.95;;;;;;;14.15;100.00;100993.59;5032098;28;20034;-49
2023/07/21 04:44:43;;;;;;;10.25;9.25;;;;;;;14.56;100.00;101044.72;5030909;28;20037;-50
2023/07/21 04:47:08;;;;;;;9.02;8.25;;;;;;;14.47;100.00;101032.75;5031932;28;20037;-49
2023/07/21 04:49:33;;;;;;;9.27;8.38;;;;;;;14.60;100.00;101035.69;5031905;28;20064;-50
2023/07/21 04:52:00;;;;;;;8.20;7.50;;;;;;;14.32;100.00;100972.53;5031950;28;20076;-50
2023/07/21 04:54:26;;;;;;;8.95;7.72;;;;;;;14.73;100.00;101042.16;5036485;28;20392;-50
2023/07/21 04:56:52;;;;;;;9.02;8.20;;;;;;;14.82;100.00;101033.78;5031881;28;20040;-50
2023/07/21 04:59:18;;;;;;;8.65;7.88;;;;;;;14.58;100.00;100979.28;5031678;28;20034;-48
2023/07/21 05:01:44;;;;;;;7.80;7.15;;;;;;;14.68;100.00;100990.31;5032015;28;20038;-49
2023/07/21 05:04:10;;;;;;;7.45;6.78;;;;;;;14.97;100.00;101027.72;5014098;28;20049;-51
2023/07/21 05:06:35;;;;;;;7.65;6.95;;;;;;;14.72;100.00;100990.06;5031599;28;20033;-49
2023/07/21 05:09:00;;;;;;;7.43;6.72;;;;;;;15.07;100.00;101044.94;5033193;28;20038;-49
2023/07/21 05:11:26;;;;;;;7.95;7.15;;;;;;;14.63;100.00;100953.41;5035155;28;20032;-52
2023/07/21 05:13:52;;;;;;;8.70;7.05;;;;;;;14.77;100.00;100969.50;5034163;28;20428;-49
2023/07/21 05:16:17;;;;;;;7.50;6.80;;;;;;;14.82;100.00;100970.19;5035799;28;20033;-48
2023/07/21 05:18:43;;;;;;;7.07;6.47;;;;;;;15.07;100.00;101012.25;5035425;28;20033;-48
2023/07/21 05:21:08;;;;;;;7.10;6.40;;;;;;;14.94;100.00;100985.50;5035365;28;20034;-50
2023/07/21 05:23:33;;;;;;;7.43;6.60;;;;;;;15.35;100.00;101038.31;5034219;28;20040;-52
2023/07/21 05:26:00;;;;;;;9.32;6.95;;;;;;;14.92;100.00;100959.97;5035129;28;20068;-48
2023/07/21 05:28:27;;;;;;;7.18;6.57;;;;;;;15.06;100.00;100963.66;5034912;28;20059;-51
2023/07/21 05:30:52;;;;;;;7.25;6.60;;;;;;;15.52;100.00;101033.94;5047911;28;20472;-52
2023/07/21 05:33:18;;;;;;;7.20;6.50;;;;;;;15.55;100.00;101035.56;5055198;28;20037;-49
2023/07/21 05:35:43;;;;;;;7.25;6.55;;;;;;;15.54;100.00;101029.41;5055067;28;20037;-53
2023/07/21 05:38:09;;;;;;;7.30;6.60;;;;;;;15.61;100.00;101033.47;5054960;28;20067;-50
2023/07/21 05:40:34;;;;;;;7.57;6.88;;;;;;;15.64;100.00;101033.28;5055387;28;20037;-51
2023/07/21 05:43:01;;;;;;;8.98;7.97;;;;;;;15.23;100.00;100970.81;5037029;28;20047;-48
2023/07/21 05:45:26;;;;;;;10.57;9.48;;;;;;;15.22;100.00;100966.44;5053848;28;20029;-50
2023/07/21 05:47:52;;;;;;;10.18;9.13;;;;;;;15.36;100.00;100986.97;5037327;28;20044;-51
2023/07/21 05:50:17;;;;;;;11.25;9.23;;;;;;;15.33;100.00;100969.41;5035052;28;20365;-52
2023/07/21 05:52:42;;;;;;;10.85;9.85;;;;;;;15.50;100.00;100989.84;5034862;28;20046;-52
2023/07/21 05:55:08;;;;;;;11.55;9.57;;;;;;;15.88;100.00;101040.97;5035118;28;20388;-47
2023/07/21 05:57:34;;;;;;;10.70;9.70;;;;;;;15.57;100.00;100983.28;5034595;28;20040;-52
2023/07/21 05:59:59;;;;;;;11.45;10.13;;;;;;;15.55;100.00;100969.25;5035084;28;20033;-48
2023/07/21 06:02:25;;;;;;;10.10;9.10;;;;;;;15.54;100.00;100949.81;5034822;28;20065;-46
2023/07/21 06:04:51;;;;;;;10.48;9.48;;;;;;;15.97;100.00;101035.16;5032988;28;20044;-48
2023/07/21 06:07:17;;;;;;;12.07;10.23;;;;;;;16.14;100.00;101043.97;5034685;28;20049;-50
2023/07/21 06:09:42;;;;;;;11.88;10.07;;;;;;;16.11;100.00;101027.38;5034486;28;20037;-49
2023/07/21 06:12:08;;;;;;;11.05;9.95;;;;;;;15.90;100.00;100981.56;5033147;28;20481;-49
2023/07/21 06:14:34;;;;;;;11.15;10.00;;;;;;;16.32;100.00;101051.00;5033385;28;20037;-50
2023/07/21 06:16:59;;;;;;;9.55;8.60;;;;;;;15.99;100.00;100989.03;5034492;28;20040;-51
2023/07/21 06:19:25;;;;;;;10.23;9.27;;;;;;;16.11;100.00;101006.13;5032672;28;20033;-50
2023/07/21 06:21:51;;;;;;;9.80;8.80;;;;;;;16.02;100.00;100988.88;5040100;28;20385;-48
2023/07/21 06:24:16;;;;;;;9.73;8.73;;;;;;;16.50;100.00;101061.59;5054133;28;20045;-49
2023/07/21 06:26:41;;;;;;;9.63;8.55;;;;;;;16.47;100.00;101043.16;5054023;28;20461;-55
2023/07/21 06:29:07;;;;;;;9.38;8.55;;;;;;;16.46;100.00;101025.50;5035645;28;20575;-52
2023/07/21 06:31:33;;;;;;;9.63;8.57;;;;;;;16.69;100.00;101062.38;5036237;28;20044;-49
2023/07/21 06:33:58;;;;;;;9.45;8.32;;;;;;;16.76;100.00;101067.25;5054037;28;20537;-49
2023/07/21 06:36:25;;;;;;;10.10;8.68;;;;;;;16.81;100.00;101056.38;5036075;28;20029;-49
2023/07/21 06:38:50;;;;;;;9.27;8.38;;;;;;;16.74;100.00;101041.69;5039456;28;20038;-47
2023/07/21 06:41:15;;;;;;;10.55;8.65;;;;;;;17.08;100.00;101068.16;5033807;28;20039;-49
2023/07/21 06:43:41;;;;;;;7.45;6.75;;;;;;;17.26;100.00;101080.44;5032821;28;20029;-51
2023/07/21 06:46:07;;;;;;;7.32;6.63;;;;;;;16.95;100.00;101013.94;5033402;28;20114;-50
2023/07/21 06:48:32;;;;;;;6.75;6.03;;;;;;;17.07;100.00;101007.06;5033692;28;20400;-48
2023/07/21 06:50:57;;;;;;;8.18;7.20;;;;;;;17.55;100.00;101077.94;5033890;28;20036;-51
2023/07/21 06:53:23;;;;;;;9.25;6.63;;;;;;;17.63;100.00;101076.56;5033438;28;20021;-53
2023/07/21 06:55:49;;;;;;;8.88;7.07;;;;;;;17.37;100.00;101016.81;5033815;28;20461;-49
2023/07/21 06:58:14;;;;;;;7.25;6.35;;;;;;;17.78;100.00;101056.16;5032704;28;20163;-53
2023/07/21 07:00:40;;;;;;;10.07;6.60;;;;;;;17.86;100.00;101048.59;5033732;28;20148;-49
2023/07/21 07:03:05;;;;;;;7.72;6.60;;;;;;;18.00;100.00;101043.31;5032478;28;20041;-49
2023/07/21 07:05:30;;;;;;;7.35;6.47;;;;;;;18.27;100.00;101070.94;5033011;28;20040;-49
2023/07/21 07:07:56;;;;;;;6.15;5.28;;;;;;;18.05;100.00;101009.25;5033459;28;20073;-51
2023/07/21 07:10:21;;;;;;;7.45;5.55;;;;;;;18.59;100.00;101085.03;5033312;28;20454;-52
2023/07/21 07:12:47;;;;;;;7.30;5.18;;;;;;;18.59;100.00;101071.69;5032679;28;20041;-51
2023/07/21 07:15:12;;;;;;;3.88;3.33;;;;;;;18.77;100.00;101075.00;5033473;28;20072;-50
2023/07/21 07:17:37;;;;;;;3.00;2.80;;;;;;;18.57;100.00;101019.41;5033431;28;20033;-52
2023/07/21 07:20:04;;;;;;;3.05;2.72;;;;;;;18.33;100.00;100992.47;5032115;28;20032;-52
2023/07/21 07:22:29;;;;;;;4.47;2.50;;;;;;;18.90;100.00;101075.97;5032941;28;20076;-49
2023/07/21 07:24:55;;;;;;;4.20;2.22;;;;;;;18.68;100.00;101027.59;5033667;28;20061;-51
2023/07/21 07:27:20;;;;;;;3.13;2.20;;;;;;;18.54;100.00;101031.13;5035055;28;20051;-52
2023/07/21 07:29:46;;;;;;;2.80;1.92;;;;;;;18.63;100.00;101019.03;5052838;28;20569;-52
2023/07/21 07:32:13;;;;;;;1.77;1.40;;;;;;;19.03;100.00;101080.41;5052500;28;20037;-50
2023/07/21 07:34:38;;;;;;;2.25;1.50;;;;;;;18.88;100.00;101021.88;5053035;28;20029;-52
2023/07/21 07:37:03;;;;;;;2.20;1.90;;;;;;;19.12;100.00;101048.78;5052551;28;20044;-51
2023/07/21 07:39:30;;;;;;;2.03;1.80;;;;;;;19.39;100.00;101060.34;5052820;28;20040;-48
2023/07/21 07:41:55;;;;;;;2.58;2.05;;;;;;;19.30;100.00;101016.41;5052620;28;20484;-50
2023/07/21 07:44:20;;;;;;;2.83;1.80;;;;;;;19.60;100.00;101033.13;5051392;28;20114;-53
2023/07/21 07:46:46;;;;;;;2.10;1.55;;;;;;;20.00;100.00;101086.53;5052614;28;20120;-50
2023/07/21 07:49:11;;;;;;;1.70;1.40;;;;;;;20.14;100.00;101089.97;5051178;28;20499;-53
2023/07/21 07:51:39;;;;;;;2.40;1.50;;;;;;;20.22;100.00;101052.03;5051355;28;20477;-51
2023/07/21 07:54:05;;;;;;;2.58;2.03;;;;;;;20.44;100.00;101078.16;5034339;28;20472;-52
2023/07/21 07:56:31;;;;;;;1.23;1.15;;;;;;;20.53;100.00;101072.19;5052423;28;20037;-50
2023/07/21 07:58:57;;;;;;;1.70;1.17;;;;;;;20.44;100.00;101033.56;5050119;28;20025;-47
2023/07/21 08:01:23;;;;;;;2.38;1.20;;;;;;;20.74;100.00;101078.69;5034301;28;20426;-50
2023/07/21 08:03:48;;;;;;;3.33;1.48;;;;;;;20.86;100.00;101077.84;5051755;28;20381;-50
2023/07/21 08:06:13;;;;;;;1.40;1.15;;;;;;;20.65;100.00;101053.47;5051711;28;20415;-51
2023/07/21 08:08:40;;;;;;;1.42;1.27;;;;;;;20.52;100.00;101027.69;5051288;28;20036;-50
2023/07/21 08:11:06;;;;;;;1.38;1.20;;;;;;;20.64;100.00;101043.72;5052045;28;20029;-52
2023/07/21 08:13:31;;;;;;;1.27;1.17;;;;;;;20.98;100.00;101101.03;5049998;28;20032;-49
2023/07/21 08:15:57;;;;;;;1.83;1.20;;;;;;;20.62;100.00;101032.28;5032483;28;20117;-49
2023/07/21 08:18:22;;;;;;;3.70;1.38;;;;;;;20.91;100.00;101085.53;5032330;28;20048;-53
2023/07/21 08:20:50;;;;;;;2.85;1.10;;;;;;;20.72;100.00;101080.63;5032010;28;20042;-50
2023/07/21 08:23:15;;;;;;;3.75;1.20;;;;;;;20.74;100.00;101090.25;5032612;28;20030;-48
2023/07/21 08:25:41;;;;;;;1.08;1.02;;;;;;;20.41;100.00;101030.25;5031894;28;20104;-52
2023/07/21 08:28:07;;;;;;;1.60;1.13;;;;;;;20.81;100.00;101101.38;5013831;28;20052;-49
2023/07/21 08:30:33;;;;;;;1.65;1.30;;;;;;;20.92;100.00;101096.13;5032084;28;20037;-50
2023/07/21 08:32:58;;;;;;;2.22;1.17;;;;;;;20.90;100.00;101083.81;5042685;28;20115;-53
2023/07/21 08:35:24;;;;;;;1.20;1.00;;;;;;;20.65;100.00;101025.84;5051577;28;20037;-49
2023/07/21 08:37:50;;;;;;;2.33;1.50;;;;;;;20.84;100.00;101041.44;5051919;28;20425;-52
2023/07/21 08:40:16;;;;;;;1.85;1.35;;;;;;;20.89;100.00;101034.81;5033960;28;20035;-52
2023/07/21 08:42:42;;;;;;;2.50;1.20;;;;;;;21.36;100.00;101108.16;5050789;28;20069;-50
2023/07/21 08:45:08;;;;;;;2.55;1.30;;;;;;;21.13;100.00;101049.09;5055327;28;20086;-49
2023/07/21 08:47:34;;;;;;;5.28;1.80;;;;;;;21.44;100.00;101055.75;5056048;28;20098;-49
2023/07/21 08:50:01;;;;;;;1.58;1.27;;;;;;;22.08;100.00;101100.03;5042349;28;20041;-52
2023/07/21 08:52:26;;;;;;;2.13;1.60;;;;;;;22.22;100.00;101098.97;5035907;28;20489;-52
2023/07/21 08:54:53;;;;;;;4.35;1.48;;;;;;;22.08;100.00;101041.06;5035742;28;20060;-53
2023/07/21 08:57:19;;;;;;;3.10;1.67;;;;;;;22.65;100.00;101029.47;5035848;28;20460;-51
2023/07/21 08:59:44;;;;;;;4.13;1.60;;;;;;;23.86;100.00;101076.72;5034351;28;20065;-51
2023/07/21 09:02:09;;;;;;;1.50;1.40;;;;;;;24.67;100.00;101094.84;5018094;28;20038;-47
2023/07/21 09:04:35;;;;;;;1.80;1.35;;;;;;;25.13;100.00;101052.13;5035278;28;20037;-50
2023/07/21 09:07:02;;;;;;;2.65;1.67;;;;;;;26.15;100.00;101108.34;5035849;28;20103;-52
2023/07/21 09:09:30;;;;;;;3.75;2.13;;;;;;;25.78;100.00;101066.88;5035531;28;20366;-51
2023/07/21 09:12:07;;;;;;;2.80;1.50;;;;;;;25.33;100.00;101111.47;5035656;28;20136;-47
2023/07/21 09:14:40;;;;;;;1.98;1.40;;;;;;;25.42;100.00;101119.59;5035152;28;20030;-51
2023/07/21 09:17:07;;;;;;;2.42;1.35;;;;;;;24.46;100.00;101064.44;5035486;28;20029;-51
2023/07/21 09:19:36;;;;;;;2.03;1.50;;;;;;;23.75;100.00;101054.41;5035191;28;20374;-48
2023/07/21 09:22:02;;;;;;;3.45;1.50;;;;;;;23.23;100.00;101088.25;5033763;28;20037;-49
2023/07/21 09:24:27;;;;;;;3.17;1.50;;;;;;;22.82;100.00;101091.56;5034139;28;20468;-47
2023/07/21 09:27:16;;;;;;;2.80;1.48;;;;;;;22.32;100.00;101087.44;5035314;28;20044;-51
2023/07/21 09:29:43;;;;;;;5.43;1.45;;;;;;;21.53;100.00;101022.06;5035168;28;20460;-47
2023/07/21 09:32:15;;;;;;;4.25;2.58;;;;;;;21.44;100.00;101085.22;5017294;28;20026;-52
2023/07/21 09:35:00;;;;;;;3.08;1.63;;;;;;;20.86;100.00;101090.34;5035232;28;20037;-49
2023/07/21 09:37:32;;;;;;;3.30;1.38;;;;;;;20.46;100.00;101073.59;5035313;28;20373;-47
2023/07/21 09:40:00;;;;;;;4.63;1.50;;;;;;;20.20;100.00;101069.97;5033564;28;20044;-49
2023/07/21 09:42:27;;;;;;;1.55;1.13;;;;;;;20.01;100.00;101070.41;5033778;28;20477;-50
2023/07/21 09:44:53;;;;;;;2.90;1.20;;;;;;;19.82;100.00;101063.75;5034908;28;20029;-49
2023/07/21 09:47:19;;;;;;;1.88;1.20;;;;;;;19.34;100.00;100993.91;5035500;28;20038;-54
2023/07/21 09:49:45;;;;;;;1.70;1.13;;;;;;;19.50;100.00;101002.63;5034992;28;20076;-49
2023/07/21 09:52:15;;;;;;;3.05;1.10;;;;;;;19.96;100.00;101064.53;5034831;28;20065;-51
2023/07/21 09:54:47;;;;;;;1.37;1.10;;;;;;;19.81;100.00;101005.91;5016705;28;20519;-51
2023/07/21 09:57:16;;;;;;;1.40;0.80;;;;;;;19.98;100.00;100994.94;5034740;28;20484;-49
2023/07/21 09:59:44;;;;;;;0.70;0.70;;;;;;;20.44;100.00;101060.31;5033440;28;20391;-48
2023/07/21 10:02:11;;;;;;;4.00;1.40;;;;;;;20.32;100.00;101036.22;5034787;28;20044;-48
2023/07/21 10:04:37;;;;;;;1.35;1.02;;;;;;;20.12;100.00;101002.84;5034729;28;20029;-52
2023/07/21 10:07:06;;;;;;;1.23;1.13;;;;;;;20.26;100.00;101005.44;5034425;28;20030;-50
2023/07/21 10:09:32;;;;;;;2.72;1.20;;;;;;;20.46;100.00;101018.25;5033205;28;20176;-49
2023/07/21 10:12:14;;;;;;;1.05;0.95;;;;;;;20.56;100.00;101007.78;5019374;28;20065;-48
2023/07/21 10:14:40;;;;;;;1.13;0.90;;;;;;;20.82;100.00;101048.72;5054788;28;20496;-48
2023/07/21 10:17:08;;;;;;;2.45;0.88;;;;;;;20.72;100.00;101044.00;5053354;28;20111;-48
2023/07/21 10:19:41;;;;;;;1.92;1.10;;;;;;;20.58;100.00;101049.50;5054144;28;20048;-48
2023/07/21 10:22:12;;;;;;;3.78;1.50;;;;;;;20.12;100.00;101009.06;5054145;28;20037;-52
2023/07/21 10:24:45;;;;;;;5.03;1.92;;;;;;;20.07;100.00;101045.06;5036802;28;20033;-50
2023/07/21 10:27:19;;;;;;;1.42;1.20;;;;;;;19.81;100.00;101035.28;5036514;28;20119;-50
2023/07/21 10:29:44;;;;;;;4.57;1.77;;;;;;;19.86;100.00;101055.41;5014894;28;20084;-47
2023/07/21 10:32:10;;;;;;;2.47;1.48;;;;;;;19.67;100.00;101007.69;5032811;28;20119;-50
2023/07/21 10:34:42;;;;;;;3.50;1.58;;;;;;;19.62;100.00;101001.81;5032817;28;20029;-50
2023/07/21 10:37:07;;;;;;;2.25;1.58;;;;;;;19.61;100.00;101007.28;5034487;28;20029;-50
2023/07/21 10:39:35;;;;;;;2.08;1.30;;;;;;;20.14;100.00;101068.59;5034274;28;20064;-51
2023/07/21 10:42:03;;;;;;;3.97;1.92;;;;;;;20.47;100.00;101048.53;5033821;28;20040;-49
2023/07/21 10:44:33;;;;;;;2.90;1.70;;;;;;;21.74;100.00;101082.09;5040744;28;20123;-50
2023/07/21 10:46:58;;;;;;;1.15;1.02;;;;;;;22.38;100.00;101021.72;5053766;28;20033;-51
2023/07/21 10:49:24;;;;;;;0.98;0.70;;;;;;;23.48;100.00;101109.47;5046413;28;20240;-49
2023/07/21 10:51:49;;;;;;;1.17;0.70;;;;;;;23.50;100.00;101120.06;5045032;28;20056;-49
2023/07/21 10:54:16;;;;;;;0.93;0.90;;;;;;;23.27;100.00;101102.25;5035863;28;20048;-50
2023/07/21 10:56:46;;;;;;;2.20;1.15;;;;;;;23.14;100.00;101123.03;5035775;28;20068;-47
2023/07/21 10:59:13;;;;;;;1.10;1.00;;;;;;;22.84;100.00;101127.19;5034989;28;20029;-50
2023/07/21 11:01:46;;;;;;;1.20;1.10;;;;;;;22.40;100.00;101116.34;5032299;28;20033;-47
2023/07/21 11:04:13;;;;;;;2.80;1.30;;;;;;;22.09;100.00;101050.81;5020773;28;20029;-51
2023/07/21 11:07:05;;;;;;;2.08;1.20;;;;;;;22.92;100.00;101100.56;5052968;28;20033;-52
2023/07/21 11:09:34;;;;;;;2.00;1.85;;;;;;;23.25;100.00;101113.13;5029375;28;20053;-51
2023/07/21 11:12:00;;;;;;;1.98;1.75;;;;;;;23.04;100.00;101100.56;5033262;28;20459;-50
2023/07/21 11:14:27;;;;;;;3.15;2.00;;;;;;;22.42;100.00;101072.31;5033502;28;20121;-52